Decoded Metar for KMFD (MANSFIELD in OH, USA) (IATA:MFD) | Meteo·Mobile Aviation Weather
aviador You're here:

KMFD Decoded Metar

MANSFIELD in OH, USA
Report Time2018-12-14 11:52:00
UTC Time2018-12-14 12:16:46
Flight Rules vfr VFR
Wind160° at 06 kt
W.Decomp.*RWY 14: 5.4 kt HW 2.6 kt RCW
RWY 23: 2.6 kt HW 5.4 kt LCW
W.Rank160° ranks 6
Current wind is below 160° avg. (8.4)
Visibility9999 m
Phenomena:N/A
Clouds:Broken 085 Hf
Expected CloudBase > 1,200 ft AGL from Temp-Dew spread
Ceiling8,500 ft
Temp05°C (ISA -7)
Dew Point02°C (81% RH)
AAT1.2°C
QNH1022 hPa
Density Alt197 ft
Elevation1,296 ft
Report Wrong Elevation
Raw Report
KMFD 141152Z 16006KT 10SM BKN085 05/02 A3017 RMK AO2 SLP225
T00500017 10061 20044 53001=

Extra information for KMFD:More info

Metar Taf Metar & Taf Last 4 Metars F.Rules Stats Wind Profile Meteogram Temp Stats Airport Information Weather charts Add Link Nearby VenuesMetar ALERT Operation Metar Decoded Social comments

AIRNAV info for KMFD